Decoded Metar for LFRL (LANVEDOC in FRANCE) (IATA:N/A) | Meteo·Mobile Aviation Weather
aviador You're here:

LFRL Decoded Metar

LANVEDOC in FRANCE
Report Time2019-04-20 10:00:00
UTC Time2019-04-20 10:15:23
Flight Rules vfr VFR
Wind040° at 09 kt
W.Decomp.*RWY 05: 8.9 kt HW 1.1 kt LCW
Visibility8000 m
Phenomena:N/A
Clouds:N/A
Expected CloudBase > 4,000 ft AGL from Temp-Dew spread
CeilingNone
Temp19°C (ISA +5)
Dew Point09°C (52% RH)
AAT15.5°C
QNH1028 hPa
Density Alt453 ft
Elevation269 ft
Report Wrong Elevation
Raw Report
METAR LFRL 201000Z AUTO 04009KT 020V080 8000 NSC 19/09 Q1028=

Extra information for LFRL:More info

Metar Taf Metar & Taf Last 4 Metars F.Rules Stats Wind Profile Meteogram Temp Stats Airport Information Weather charts Add Link Nearby VenuesMetar ALERT Operation Metar Decoded Social comments